Time;durP1;ratioP1;P1;durP2;ratioP2;P2;SDS_P1;SDS_P2;PMS_P1;PMS_P2;Temp;Humidity;BMP_temperature;BMP_pressure;BME280_temperature;BME280_humidity;BME280_pressure;Samples;Min_cycle;Max_cycle;Signal;HPM_P1;HPM_P2
2022/10/11 00:02:24;;;;;;;5.68;3.97;;;;;;;23.70;50.85;97127.69;5014252;28;20030;-26
2022/10/11 00:04:49;;;;;;;5.50;4.13;;;;;;;23.72;50.80;97122.41;5014067;28;20029;-26
2022/10/11 00:07:16;;;;;;;5.53;4.00;;;;;;;23.74;50.72;97119.88;5014038;28;20036;-26
2022/10/11 00:09:42;;;;;;;5.15;4.20;;;;;;;23.67;50.92;97109.28;5013054;28;20030;-27
2022/10/11 00:12:07;;;;;;;5.82;4.40;;;;;;;23.73;50.64;97121.16;5011916;28;20030;-26
2022/10/11 00:14:33;;;;;;;6.28;4.00;;;;;;;23.68;50.88;97116.34;5013247;28;20053;-26
2022/10/11 00:16:58;;;;;;;4.85;4.07;;;;;;;23.73;50.56;97118.38;5013821;28;20033;-26
2022/10/11 00:19:24;;;;;;;4.57;3.97;;;;;;;23.74;50.60;97117.09;5014216;28;20057;-28
2022/10/11 00:21:49;;;;;;;5.88;4.25;;;;;;;23.67;50.90;97109.28;5013839;28;20440;-27
2022/10/11 00:24:15;;;;;;;4.93;4.28;;;;;;;23.64;50.85;97121.34;5014040;28;20032;-26
2022/10/11 00:26:41;;;;;;;5.00;4.50;;;;;;;23.71;50.56;97120.13;5013868;28;20088;-27
2022/10/11 00:29:07;;;;;;;4.57;4.18;;;;;;;23.66;50.65;97116.06;5014023;28;20028;-27
2022/10/11 00:31:32;;;;;;;6.55;4.15;;;;;;;23.66;50.86;97107.75;5013616;28;20022;-26
2022/10/11 00:33:58;;;;;;;4.75;4.30;;;;;;;23.61;50.81;97114.06;5012293;28;20050;-26
2022/10/11 00:36:24;;;;;;;5.00;4.32;;;;;;;23.71;50.47;97114.59;5013564;28;20033;-26
2022/10/11 00:38:49;;;;;;;5.13;4.63;;;;;;;23.70;50.59;97113.84;5013224;28;20050;-26
2022/10/11 00:41:16;;;;;;;5.20;4.20;;;;;;;23.67;50.51;97112.03;5013507;28;20441;-26
2022/10/11 00:43:42;;;;;;;5.78;4.50;;;;;;;23.60;50.65;97107.00;5013683;28;20045;-27
2022/10/11 00:46:16;;;;;;;5.38;4.07;;;;;;;23.71;50.29;97107.03;5013582;28;20049;-26
2022/10/11 00:48:47;;;;;;;5.35;4.70;;;;;;;23.67;50.46;97100.97;5013467;28;20101;-27
2022/10/11 00:51:39;;;;;;;5.72;4.30;;;;;;;23.64;50.69;97107.50;5013848;28;20458;-26
2022/10/11 00:54:06;;;;;;;6.63;4.85;;;;;;;23.67;50.41;97102.97;5012637;28;20073;-26
2022/10/11 00:56:37;;;;;;;5.20;4.70;;;;;;;23.63;50.45;97100.44;5013432;28;20026;-26
2022/10/11 00:59:09;;;;;;;7.20;4.60;;;;;;;23.64;50.69;97101.97;5013619;28;20053;-26
2022/10/11 01:01:35;;;;;;;5.88;4.35;;;;;;;23.66;50.54;97101.47;5013375;28;20032;-26
2022/10/11 01:04:01;;;;;;;5.00;4.50;;;;;;;23.64;50.36;97104.72;5013486;28;20030;-27
2022/10/11 01:06:26;;;;;;;6.32;4.93;;;;;;;23.59;50.69;97095.16;5013395;28;20104;-26
2022/10/11 01:08:52;;;;;;;6.85;4.65;;;;;;;23.62;50.17;97101.69;5013309;28;20386;-27
2022/10/11 01:11:22;;;;;;;6.20;4.85;;;;;;;23.63;50.30;97098.44;5013637;28;20034;-27
2022/10/11 01:14:06;;;;;;;5.10;4.43;;;;;;;23.66;50.27;97082.84;5013298;28;20025;-26
2022/10/11 01:16:44;;;;;;;6.22;5.00;;;;;;;23.64;50.13;97083.34;5013307;28;20038;-28
2022/10/11 01:19:28;;;;;;;7.05;4.78;;;;;;;23.63;50.14;97083.81;5013480;28;20080;-27
2022/10/11 01:22:06;;;;;;;5.35;4.70;;;;;;;23.57;50.28;97077.53;5013249;28;20100;-26
2022/10/11 01:24:55;;;;;;;5.07;4.47;;;;;;;23.62;50.28;97085.84;5013336;28;20465;-28
2022/10/11 01:27:39;;;;;;;5.95;4.70;;;;;;;23.62;50.12;97085.84;5012654;28;20092;-26
2022/10/11 01:30:24;;;;;;;6.45;4.85;;;;;;;23.55;50.04;97080.03;5013137;28;20051;-26
2022/10/11 01:33:07;;;;;;;5.93;4.75;;;;;;;23.54;50.12;97086.81;5013135;28;20022;-27
2022/10/11 01:35:48;;;;;;;6.47;4.68;;;;;;;23.58;50.19;97082.56;5013259;28;20049;-27
2022/10/11 01:38:33;;;;;;;5.25;4.70;;;;;;;23.55;49.96;97080.78;5012943;28;20614;-26
2022/10/11 01:41:05;;;;;;;5.30;4.68;;;;;;;23.57;49.89;97069.97;5013228;28;20473;-26
2022/10/11 01:43:32;;;;;;;4.55;4.10;;;;;;;23.59;49.91;97075.03;5013439;28;20061;-28
2022/10/11 01:45:59;;;;;;;5.18;4.68;;;;;;;23.58;49.76;97067.97;5013080;28;20030;-27
2022/10/11 01:48:25;;;;;;;5.15;4.47;;;;;;;23.59;49.76;97061.19;5011624;28;20430;-28
2022/10/11 01:51:00;;;;;;;5.05;4.55;;;;;;;23.57;49.96;97063.69;5014115;28;20022;-27
2022/10/11 01:54:02;;;;;;;4.85;4.10;;;;;;;23.56;49.67;97059.41;5016282;28;20113;-27
2022/10/11 01:56:57;;;;;;;5.50;4.57;;;;;;;23.56;49.88;97057.38;5016391;28;20123;-26
2022/10/11 01:59:22;;;;;;;5.50;4.25;;;;;;;23.56;49.69;97053.84;5016142;28;20018;-26
2022/10/11 02:02:18;;;;;;;5.72;4.38;;;;;;;23.54;49.99;97051.59;5016537;28;20474;-26
2022/10/11 02:04:46;;;;;;;5.13;4.00;;;;;;;23.50;49.82;97050.28;5016477;28;20374;-28
2022/10/11 02:07:20;;;;;;;5.50;4.05;;;;;;;23.52;49.74;97047.78;5016145;28;20029;-26
2022/10/11 02:09:53;;;;;;;5.30;4.05;;;;;;;23.51;49.86;97041.50;5016329;28;20022;-28
2022/10/11 02:12:35;;;;;;;4.93;4.20;;;;;;;23.55;49.49;97041.28;5016296;28;20017;-26
2022/10/11 02:15:07;;;;;;;4.80;3.85;;;;;;;23.44;49.81;97041.19;5014755;28;20389;-27
2022/10/11 02:17:38;;;;;;;5.18;4.40;;;;;;;23.49;49.37;97037.72;5016083;28;20474;-26
2022/10/11 02:20:11;;;;;;;4.07;3.67;;;;;;;23.47;49.68;97037.44;5016024;28;20032;-26
2022/10/11 02:22:42;;;;;;;4.68;3.88;;;;;;;23.50;49.79;97036.44;5016037;28;20025;-27
2022/10/11 02:25:20;;;;;;;4.07;3.67;;;;;;;23.49;49.74;97034.94;5015939;28;20018;-26
2022/10/11 02:27:47;;;;;;;4.57;4.05;;;;;;;23.48;49.64;97044.50;5015919;28;20037;-26
2022/10/11 02:30:14;;;;;;;4.70;4.20;;;;;;;23.48;49.69;97047.28;5015980;28;20021;-28
2022/10/11 02:32:43;;;;;;;6.68;4.30;;;;;;;23.46;49.69;97033.91;5015688;28;20116;-27
2022/10/11 02:35:10;;;;;;;5.38;4.28;;;;;;;23.43;49.81;97042.44;5015618;28;20061;-26
2022/10/11 02:37:41;;;;;;;6.43;4.07;;;;;;;23.44;49.55;97041.97;5015764;28;20030;-26
2022/10/11 02:40:28;;;;;;;4.30;3.90;;;;;;;23.45;49.67;97043.47;5015438;28;20041;-26
2022/10/11 02:43:03;;;;;;;4.30;3.88;;;;;;;23.48;49.53;97041.72;5015754;28;20018;-27
2022/10/11 02:45:42;;;;;;;5.35;4.03;;;;;;;23.45;49.72;97042.72;5015655;28;20026;-28
2022/10/11 02:48:10;;;;;;;4.78;4.38;;;;;;;23.50;49.08;97041.97;5015272;28;20081;-26
2022/10/11 02:50:38;;;;;;;4.95;4.40;;;;;;;23.46;49.34;97047.00;5015411;28;20092;-28
2022/10/11 02:53:04;;;;;;;7.43;4.28;;;;;;;23.46;49.40;97050.53;5015281;28;20029;-26
2022/10/11 02:55:30;;;;;;;4.55;4.15;;;;;;;23.42;49.26;97044.47;5015298;28;20034;-26
2022/10/11 02:57:56;;;;;;;4.30;3.90;;;;;;;23.48;49.30;97047.28;5015414;28;20113;-26
2022/10/11 03:00:22;;;;;;;5.28;4.15;;;;;;;23.44;49.42;97050.25;5013957;28;20110;-27
2022/10/11 03:02:48;;;;;;;6.28;4.22;;;;;;;23.41;49.37;97047.72;5014040;28;20019;-26
2022/10/11 03:05:13;;;;;;;4.97;4.35;;;;;;;23.43;49.35;97056.28;5015280;28;20382;-27
2022/10/11 03:07:38;;;;;;;7.50;3.95;;;;;;;23.41;49.47;97050.50;5013923;28;20026;-27
2022/10/11 03:10:05;;;;;;;5.43;4.00;;;;;;;23.43;49.26;97051.50;5015366;28;20079;-27
2022/10/11 03:12:30;;;;;;;4.35;3.95;;;;;;;23.43;49.39;97056.28;5014955;28;20021;-28
2022/10/11 03:14:56;;;;;;;5.10;4.55;;;;;;;23.42;49.26;97057.53;5014897;28;20018;-26
2022/10/11 03:17:21;;;;;;;6.32;4.35;;;;;;;23.35;49.63;97064.31;5014937;28;20022;-26
2022/10/11 03:19:47;;;;;;;4.30;3.88;;;;;;;23.45;49.07;97059.31;5015071;28;20116;-27
2022/10/11 03:22:12;;;;;;;4.68;4.25;;;;;;;23.35;49.43;97061.56;5014786;28;20022;-26
2022/10/11 03:24:38;;;;;;;4.95;4.15;;;;;;;23.36;49.25;97062.31;5014864;28;20084;-26
2022/10/11 03:27:03;;;;;;;5.25;4.35;;;;;;;23.32;49.45;97056.25;5014876;28;20030;-28
2022/10/11 03:29:29;;;;;;;5.88;3.92;;;;;;;23.37;49.25;97061.78;5014598;28;20096;-26
2022/10/11 03:31:54;;;;;;;5.18;4.68;;;;;;;23.40;49.20;97057.28;5014568;28;20049;-27
2022/10/11 03:34:19;;;;;;;4.70;4.30;;;;;;;23.36;49.22;97056.78;5014747;28;20061;-26
2022/10/11 03:36:46;;;;;;;4.70;4.20;;;;;;;23.27;49.35;97055.72;5019444;28;20096;-28
2022/10/11 03:39:11;;;;;;;4.88;3.97;;;;;;;23.36;49.28;97062.31;5034361;28;20057;-27
2022/10/11 03:41:37;;;;;;;5.00;4.40;;;;;;;23.37;48.97;97069.38;5034193;28;20021;-26
2022/10/11 03:44:02;;;;;;;4.90;4.13;;;;;;;23.40;48.94;97069.09;5034462;28;20017;-26
2022/10/11 03:46:28;;;;;;;5.38;4.55;;;;;;;23.38;48.77;97070.84;5034233;28;20052;-27
2022/10/11 03:48:53;;;;;;;4.95;4.47;;;;;;;23.35;48.88;97074.63;5034258;28;20034;-26
2022/10/11 03:51:19;;;;;;;5.15;4.68;;;;;;;23.36;48.92;97078.91;5034017;28;20021;-27
2022/10/11 03:53:44;;;;;;;6.28;5.03;;;;;;;23.23;49.43;97077.34;5032893;28;20116;-26
2022/10/11 03:56:10;;;;;;;5.57;4.70;;;;;;;23.22;49.27;97075.84;5034008;28;20056;-26
2022/10/11 03:58:35;;;;;;;4.70;4.30;;;;;;;23.27;49.21;97072.31;5033860;28;20031;-27
2022/10/11 04:01:01;;;;;;;4.88;4.13;;;;;;;23.28;48.88;97076.59;5033695;28;20036;-27
2022/10/11 04:03:26;;;;;;;4.63;4.22;;;;;;;23.34;48.96;97078.66;5033915;28;20380;-28
2022/10/11 04:05:52;;;;;;;5.03;4.60;;;;;;;23.26;48.80;97079.09;5033828;28;20545;-26
2022/10/11 04:08:17;;;;;;;5.25;4.60;;;;;;;23.26;49.12;97086.66;5033680;28;20021;-26
2022/10/11 04:10:43;;;;;;;5.20;4.60;;;;;;;23.26;48.75;97084.63;5033651;28;20025;-26
2022/10/11 04:13:10;;;;;;;5.00;4.43;;;;;;;23.29;48.79;97093.97;5033376;28;20023;-26
2022/10/11 04:15:36;;;;;;;5.78;4.80;;;;;;;23.25;48.76;97085.88;5033696;28;20047;-26
2022/10/11 04:18:02;;;;;;;5.20;4.68;;;;;;;23.24;48.99;97081.59;5033646;28;20029;-30
2022/10/11 04:20:27;;;;;;;4.65;4.10;;;;;;;23.22;49.20;97084.13;5033571;28;20385;-26
2022/10/11 04:22:53;;;;;;;5.20;4.70;;;;;;;23.21;49.03;97085.38;5033570;28;20028;-27
2022/10/11 04:25:18;;;;;;;5.68;4.68;;;;;;;23.26;49.04;97084.63;5033584;28;20112;-27
2022/10/11 04:27:44;;;;;;;5.47;4.97;;;;;;;23.22;48.97;97086.13;5033579;28;20068;-26
2022/10/11 04:30:10;;;;;;;5.50;4.70;;;;;;;23.23;48.80;97082.13;5033581;28;20572;-26
2022/10/11 04:32:35;;;;;;;6.15;4.85;;;;;;;23.18;49.03;97080.84;5033314;28;20520;-27
2022/10/11 04:35:01;;;;;;;5.93;5.05;;;;;;;23.19;48.88;97079.59;5033585;28;20033;-27
2022/10/11 04:37:26;;;;;;;5.45;4.95;;;;;;;23.20;48.72;97083.09;5033534;28;20448;-26
2022/10/11 04:39:52;;;;;;;5.07;4.50;;;;;;;23.23;48.69;97080.13;5033273;28;20045;-28
2022/10/11 04:42:17;;;;;;;5.38;4.82;;;;;;;23.17;48.68;97078.56;5033540;28;20045;-27
2022/10/11 04:44:42;;;;;;;6.00;4.82;;;;;;;23.21;48.78;97079.09;5033426;28;20418;-26
2022/10/11 04:47:08;;;;;;;6.45;5.07;;;;;;;23.20;48.81;97077.56;5033330;28;20385;-26
2022/10/11 04:49:33;;;;;;;5.60;5.10;;;;;;;23.15;48.86;97081.81;5033383;28;20036;-26
2022/10/11 04:51:59;;;;;;;5.72;4.72;;;;;;;23.18;48.88;97082.84;5033324;28;20072;-28
2022/10/11 04:54:24;;;;;;;5.25;4.75;;;;;;;23.19;48.83;97079.59;5033166;28;20461;-27
2022/10/11 04:56:50;;;;;;;5.60;5.10;;;;;;;23.13;48.74;97083.56;5033200;28;20041;-26
2022/10/11 04:59:15;;;;;;;5.72;5.07;;;;;;;23.17;48.65;97079.31;5033426;28;20021;-26
2022/10/11 05:01:41;;;;;;;6.63;5.60;;;;;;;23.18;48.50;97080.84;5033097;28;20096;-27
2022/10/11 05:04:06;;;;;;;6.60;5.13;;;;;;;23.20;48.82;97081.09;5033195;28;20022;-26
2022/10/11 05:06:32;;;;;;;5.95;5.35;;;;;;;23.17;48.69;97084.84;5033161;28;20031;-27
2022/10/11 05:08:57;;;;;;;5.43;4.85;;;;;;;23.13;48.68;97084.31;5033216;28;20023;-27
2022/10/11 05:11:23;;;;;;;5.45;4.88;;;;;;;23.16;48.66;97083.34;5032948;28;20021;-28
2022/10/11 05:13:48;;;;;;;5.68;5.05;;;;;;;23.12;48.87;97077.25;5033202;28;20385;-27
2022/10/11 05:16:14;;;;;;;5.80;5.18;;;;;;;23.14;48.60;97083.06;5033058;28;20079;-26
2022/10/11 05:18:40;;;;;;;6.35;5.35;;;;;;;23.18;48.68;97085.59;5033009;28;20112;-27
2022/10/11 05:21:05;;;;;;;5.65;4.97;;;;;;;23.15;48.78;97087.34;5032901;28;20024;-27
2022/10/11 05:23:33;;;;;;;6.65;5.18;;;;;;;23.19;48.48;97087.88;5032888;28;20022;-26
2022/10/11 05:25:59;;;;;;;6.15;4.90;;;;;;;23.13;48.77;97084.31;5035868;28;20087;-27
2022/10/11 05:28:25;;;;;;;6.38;5.03;;;;;;;23.13;48.88;97084.31;5036692;28;20104;-26
2022/10/11 05:30:51;;;;;;;5.65;5.15;;;;;;;23.12;48.83;97085.56;5036874;28;20025;-26
2022/10/11 05:33:17;;;;;;;5.70;5.20;;;;;;;23.13;48.52;97080.78;5036811;28;20033;-26
2022/10/11 05:35:42;;;;;;;5.38;4.88;;;;;;;23.11;48.63;97086.09;5036711;28;20048;-28
2022/10/11 05:38:08;;;;;;;5.38;4.88;;;;;;;23.08;48.75;97087.81;5036433;28;20025;-27
2022/10/11 05:40:35;;;;;;;5.93;5.32;;;;;;;23.14;48.35;97085.06;5036553;28;20033;-27
2022/10/11 05:43:01;;;;;;;6.07;5.43;;;;;;;23.18;48.33;97091.13;5036432;28;20466;-29
2022/10/11 05:45:26;;;;;;;5.88;5.28;;;;;;;23.20;48.43;97085.88;5036390;28;20116;-27
2022/10/11 05:47:52;;;;;;;5.50;5.00;;;;;;;23.11;48.54;97095.13;5036445;28;20028;-26
2022/10/11 05:50:17;;;;;;;6.35;5.20;;;;;;;23.07;48.29;97091.84;5033196;28;20029;-27
2022/10/11 05:52:43;;;;;;;5.70;5.10;;;;;;;23.09;48.43;97097.63;5023249;28;20037;-27
2022/10/11 05:55:08;;;;;;;7.03;5.07;;;;;;;23.00;48.84;97097.81;5034392;28;20018;-26
2022/10/11 05:57:34;;;;;;;6.20;5.28;;;;;;;23.02;48.80;97095.31;5022469;28;20088;-27
2022/10/11 05:59:59;;;;;;;5.88;5.28;;;;;;;23.03;48.52;97099.59;5014456;28;20061;-26
2022/10/11 06:02:25;;;;;;;6.25;4.82;;;;;;;23.14;48.29;97093.38;5014225;28;20024;-28
2022/10/11 06:04:50;;;;;;;6.45;5.82;;;;;;;23.09;48.59;97100.41;5014142;28;20542;-29
2022/10/11 06:07:16;;;;;;;5.88;5.20;;;;;;;23.02;48.50;97095.31;5013971;28;20030;-26
2022/10/11 06:09:41;;;;;;;6.22;5.63;;;;;;;23.07;48.66;97094.59;5025292;28;20018;-27
2022/10/11 06:12:06;;;;;;;7.25;5.65;;;;;;;23.11;48.24;97103.44;5033590;28;20053;-27
2022/10/11 06:14:32;;;;;;;6.20;5.60;;;;;;;23.09;48.41;97103.16;5033872;28;20036;-29
2022/10/11 06:16:58;;;;;;;5.97;5.38;;;;;;;23.07;48.44;97104.91;5033614;28;20079;-27
2022/10/11 06:19:23;;;;;;;6.40;5.80;;;;;;;23.07;48.35;97102.91;5033594;28;20727;-28
2022/10/11 06:21:49;;;;;;;6.68;5.47;;;;;;;23.04;48.70;97108.66;5032904;28;20025;-27
2022/10/11 06:24:14;;;;;;;6.40;5.45;;;;;;;23.12;48.28;97115.25;5033532;28;20045;-26
2022/10/11 06:26:40;;;;;;;8.05;5.90;;;;;;;23.02;48.77;97122.97;5033140;28;20029;-27
2022/10/11 06:29:05;;;;;;;6.80;5.70;;;;;;;23.10;48.29;97129.59;5033497;28;20025;-27
2022/10/11 06:31:31;;;;;;;5.88;5.28;;;;;;;23.00;48.71;97142.06;5033231;28;20425;-27
2022/10/11 06:33:58;;;;;;;6.45;5.60;;;;;;;23.08;48.72;97145.16;5033428;28;20035;-26
2022/10/11 06:36:24;;;;;;;7.00;5.63;;;;;;;23.08;48.50;97147.94;5031124;28;20021;-27
2022/10/11 06:38:55;;;;;;;6.47;5.78;;;;;;;23.06;48.71;97145.66;5032763;28;20421;-27
2022/10/11 06:41:24;;;;;;;7.35;5.55;;;;;;;23.11;48.30;97142.19;5033555;28;20033;-28
2022/10/11 06:43:49;;;;;;;7.13;5.45;;;;;;;23.09;48.78;97150.19;5033226;28;20056;-28
2022/10/11 06:46:16;;;;;;;5.70;5.10;;;;;;;23.10;48.52;97143.41;5021598;28;20510;-27
2022/10/11 06:48:43;;;;;;;5.95;5.35;;;;;;;23.09;48.38;97141.16;5013325;28;20072;-27
2022/10/11 06:51:09;;;;;;;5.93;5.32;;;;;;;23.07;48.44;97155.47;5013235;28;20045;-29
2022/10/11 06:53:35;;;;;;;7.03;5.68;;;;;;;22.99;48.78;97146.13;5015122;28;20034;-27
2022/10/11 06:56:06;;;;;;;7.07;6.05;;;;;;;23.00;48.92;97155.91;5015396;28;20101;-27
2022/10/11 06:58:32;;;;;;;7.40;5.57;;;;;;;23.03;48.85;97152.16;5015243;28;20025;-27
2022/10/11 07:01:02;;;;;;;6.30;5.70;;;;;;;23.07;48.84;97157.47;5015336;28;20021;-27
2022/10/11 07:03:28;;;;;;;6.30;5.70;;;;;;;23.06;48.90;97156.72;5015343;28;20068;-26
2022/10/11 07:06:00;;;;;;;6.30;5.55;;;;;;;23.15;48.50;97159.28;5015265;28;20026;-27
2022/10/11 07:08:26;;;;;;;6.03;5.40;;;;;;;23.04;48.62;97159.22;5015326;28;20026;-27
2022/10/11 07:10:51;;;;;;;6.55;5.93;;;;;;;23.10;48.50;97162.78;5015089;28;20073;-27
2022/10/11 07:13:16;;;;;;;6.78;5.53;;;;;;;23.06;48.89;97155.97;5015086;28;20017;-27
2022/10/11 07:15:42;;;;;;;6.80;6.10;;;;;;;23.12;48.63;97154.72;5014813;28;20030;-27
2022/10/11 07:18:07;;;;;;;6.30;5.57;;;;;;;22.99;49.12;97153.66;5014902;28;20029;-26
2022/10/11 07:20:34;;;;;;;7.47;6.22;;;;;;;23.06;48.83;97145.66;5014986;28;20028;-27
2022/10/11 07:22:59;;;;;;;6.18;5.57;;;;;;;22.97;49.14;97158.91;5014951;28;20470;-27
2022/10/11 07:25:24;;;;;;;6.10;5.50;;;;;;;23.05;49.21;97148.91;5014769;28;20033;-29
2022/10/11 07:27:50;;;;;;;5.88;5.28;;;;;;;23.05;48.75;97149.66;5014676;28;20021;-28
2022/10/11 07:30:15;;;;;;;7.50;5.38;;;;;;;23.06;48.93;97159.47;5014729;28;20025;-26
2022/10/11 07:32:41;;;;;;;10.00;5.65;;;;;;;23.01;49.11;97153.91;5014751;28;20104;-27
2022/10/11 07:35:07;;;;;;;5.88;5.25;;;;;;;23.09;48.95;97154.97;5014618;28;20034;-27
2022/10/11 07:37:33;;;;;;;6.07;5.43;;;;;;;23.03;49.23;97154.94;5014513;28;20112;-27
2022/10/11 07:39:58;;;;;;;7.00;5.70;;;;;;;22.97;49.24;97154.13;5014371;28;20605;-27
2022/10/11 07:42:24;;;;;;;6.63;5.30;;;;;;;22.99;49.25;97159.94;5014575;28;20029;-28
2022/10/11 07:44:50;;;;;;;6.13;5.53;;;;;;;22.93;49.16;97165.41;5014333;28;20540;-27
2022/10/11 07:47:15;;;;;;;5.93;5.22;;;;;;;23.01;49.17;97176.03;5013792;28;20101;-27
2022/10/11 07:49:40;;;;;;;6.13;5.53;;;;;;;23.00;49.12;97164.19;5014394;28;20489;-27
2022/10/11 07:52:06;;;;;;;6.30;5.70;;;;;;;22.24;50.94;97169.28;5014072;28;20037;-26
2022/10/11 07:54:32;;;;;;;5.90;5.35;;;;;;;22.60;50.39;97175.41;5014913;28;20041;-27
2022/10/11 07:56:57;;;;;;;6.18;5.57;;;;;;;22.74;50.02;97171.78;5020657;28;20036;-28
2022/10/11 07:59:23;;;;;;;6.10;5.55;;;;;;;22.86;49.40;97176.19;5029784;28;20025;-27
2022/10/11 08:01:48;;;;;;;7.80;5.72;;;;;;;23.07;48.88;97174.06;5033401;28;20079;-27
2022/10/11 08:04:14;;;;;;;7.60;6.22;;;;;;;23.06;49.01;97170.53;5032654;28;20025;-28
2022/10/11 08:06:39;;;;;;;6.28;5.68;;;;;;;22.92;49.51;97174.19;5033945;28;20031;-27
2022/10/11 08:09:05;;;;;;;6.10;5.50;;;;;;;23.00;49.11;97178.03;5033811;28;20508;-27
2022/10/11 08:11:33;;;;;;;6.15;5.55;;;;;;;23.06;49.12;97183.63;5033689;28;20021;-26
2022/10/11 08:14:00;;;;;;;6.63;6.00;;;;;;;23.02;48.80;97188.59;5033681;28;20021;-27
2022/10/11 08:16:26;;;;;;;7.65;6.18;;;;;;;23.03;48.98;97181.84;5033698;28;20025;-27
2022/10/11 08:18:54;;;;;;;6.78;5.88;;;;;;;23.01;49.17;97189.84;5033725;28;20030;-28
2022/10/11 08:21:19;;;;;;;6.32;5.72;;;;;;;23.07;48.84;97188.66;5033929;28;20030;-27
2022/10/11 08:23:45;;;;;;;5.88;5.38;;;;;;;23.12;48.68;97182.41;5032921;28;20044;-27
2022/10/11 08:26:11;;;;;;;6.78;4.95;;;;;;;23.11;48.54;97186.44;5018722;28;20026;-27
2022/10/11 08:28:37;;;;;;;7.47;5.40;;;;;;;23.10;48.80;97184.94;5015649;28;20030;-28
2022/10/11 08:31:03;;;;;;;6.45;5.15;;;;;;;23.13;48.85;97194.22;5027536;28;20091;-27
2022/10/11 08:33:29;;;;;;;8.15;5.20;;;;;;;23.07;48.95;97194.19;5021525;28;20079;-27
2022/10/11 08:35:56;;;;;;;5.20;4.57;;;;;;;23.16;48.80;97184.94;5013805;28;20108;-27
2022/10/11 08:38:22;;;;;;;5.95;5.28;;;;;;;23.15;48.39;97177.91;5013327;28;20030;-26
2022/10/11 08:40:50;;;;;;;6.25;4.88;;;;;;;23.10;48.90;97184.94;5013774;28;20502;-27
2022/10/11 08:43:31;;;;;;;5.40;4.90;;;;;;;23.02;48.90;97181.06;5013469;28;20029;-29
2022/10/11 08:46:00;;;;;;;6.53;5.40;;;;;;;23.09;48.86;97191.72;5013629;28;20026;-28
2022/10/11 08:48:35;;;;;;;5.80;5.03;;;;;;;23.08;48.90;97181.88;5013536;28;20018;-27
2022/10/11 08:51:08;;;;;;;5.88;5.28;;;;;;;22.93;49.14;97193.09;5012196;28;20426;-27
2022/10/11 08:53:46;;;;;;;6.88;5.40;;;;;;;23.08;48.56;97187.41;5011219;28;20042;-29
2022/10/11 08:56:14;;;;;;;8.65;5.03;;;;;;;23.04;49.09;97197.94;5012761;28;20065;-28
2022/10/11 08:59:02;;;;;;;5.03;4.57;;;;;;;22.97;49.06;97187.34;5014096;28;20025;-28
2022/10/11 09:01:29;;;;;;;6.53;5.53;;;;;;;23.11;48.76;97194.75;5017453;28;20025;-27
2022/10/11 09:03:58;;;;;;;5.65;5.13;;;;;;;23.11;48.49;97194.75;5017469;28;20383;-27
2022/10/11 09:06:39;;;;;;;5.80;4.80;;;;;;;22.92;48.48;97188.03;5017168;28;20025;-27
2022/10/11 09:09:22;;;;;;;6.65;4.97;;;;;;;22.83;49.22;97186.22;5017661;28;20423;-27
2022/10/11 09:11:59;;;;;;;6.10;4.82;;;;;;;23.07;48.70;97191.44;5017597;28;20489;-27
2022/10/11 09:14:36;;;;;;;5.32;4.82;;;;;;;23.04;49.05;97186.88;5017253;28;20041;-26
2022/10/11 09:17:32;;;;;;;5.10;4.60;;;;;;;22.99;48.87;97179.31;5017323;28;20029;-27
2022/10/11 09:20:30;;;;;;;5.45;4.30;;;;;;;23.06;48.85;97175.31;5017271;28;20381;-27
2022/10/11 09:23:04;;;;;;;5.75;4.55;;;;;;;22.99;48.72;97176.53;5017186;28;20117;-27
2022/10/11 09:26:02;;;;;;;4.43;4.03;;;;;;;23.11;48.54;97189.22;5017209;28;20490;-27
2022/10/11 09:28:48;;;;;;;5.68;4.88;;;;;;;22.88;49.06;97179.19;5017103;28;20018;-27
2022/10/11 09:31:14;;;;;;;4.75;4.25;;;;;;;22.55;49.54;97188.69;5016968;28;20033;-26
2022/10/11 09:33:46;;;;;;;5.07;4.57;;;;;;;22.86;49.58;97181.72;5016851;28;20030;-27
2022/10/11 09:36:16;;;;;;;8.02;5.57;;;;;;;22.83;49.09;97186.22;5016879;28;20490;-28
2022/10/11 09:39:10;;;;;;;5.13;4.63;;;;;;;22.65;49.41;97194.03;5016610;28;20050;-27
2022/10/11 09:41:51;;;;;;;5.00;4.50;;;;;;;22.51;49.65;97190.13;5016940;28;20149;-28
2022/10/11 09:44:26;;;;;;;5.80;4.40;;;;;;;22.56;48.94;97189.44;5016871;28;20021;-27
2022/10/11 09:46:53;;;;;;;8.88;4.80;;;;;;;22.51;49.79;97190.91;5016585;28;20041;-27
2022/10/11 09:49:24;;;;;;;5.20;4.70;;;;;;;22.88;49.15;97190.25;5016666;28;20025;-28
2022/10/11 09:51:55;;;;;;;5.15;4.65;;;;;;;23.01;48.58;97198.16;5016715;28;20029;-27
2022/10/11 09:54:39;;;;;;;4.97;4.13;;;;;;;22.70;49.18;97198.88;5016553;28;20045;-26
2022/10/11 09:57:05;;;;;;;5.72;5.15;;;;;;;22.79;48.93;97188.44;5015261;28;20057;-27
2022/10/11 09:59:33;;;;;;;4.80;4.30;;;;;;;22.85;48.84;97199.56;5016722;28;20184;-29
2022/10/11 10:02:14;;;;;;;4.85;4.35;;;;;;;23.04;48.73;97206.25;5016295;28;20028;-27
2022/10/11 10:04:58;;;;;;;4.63;4.22;;;;;;;23.15;48.30;97197.25;5016561;28;20030;-27
2022/10/11 10:07:24;;;;;;;4.70;4.20;;;;;;;22.98;48.74;97210.22;5015275;28;20052;-26
2022/10/11 10:09:50;;;;;;;5.05;4.55;;;;;;;23.12;48.49;97204.53;5015858;28;20042;-27
2022/10/11 10:12:28;;;;;;;5.00;4.45;;;;;;;23.11;48.09;97208.56;5015675;28;20033;-27
2022/10/11 10:15:06;;;;;;;7.20;4.50;;;;;;;22.90;48.72;97207.88;5016193;28;20034;-28
2022/10/11 10:17:32;;;;;;;5.55;4.32;;;;;;;23.07;48.55;97208.03;5016157;28;20030;-27
2022/10/11 10:19:59;;;;;;;5.13;3.95;;;;;;;23.15;48.22;97203.56;5016132;28;20071;-26
2022/10/11 10:22:31;;;;;;;4.80;4.30;;;;;;;23.16;48.45;97216.16;5016040;28;20030;-27
2022/10/11 10:24:59;;;;;;;4.95;4.53;;;;;;;23.07;48.36;97216.34;5016202;28;20481;-29
2022/10/11 10:27:29;;;;;;;5.80;4.75;;;;;;;23.18;48.24;97216.41;5015872;28;20037;-26
2022/10/11 10:30:03;;;;;;;4.75;4.25;;;;;;;23.23;48.04;97214.97;5015880;28;20065;-27
2022/10/11 10:32:39;;;;;;;5.25;4.22;;;;;;;23.10;48.43;97217.38;5015786;28;20025;-28
2022/10/11 10:35:41;;;;;;;4.75;4.32;;;;;;;23.14;48.29;97213.09;5015781;28;20022;-27
2022/10/11 10:38:24;;;;;;;4.20;3.85;;;;;;;23.09;47.94;97222.13;5014387;28;20062;-26
2022/10/11 10:41:00;;;;;;;4.93;4.18;;;;;;;23.11;48.15;97214.13;5016036;28;20101;-27
2022/10/11 10:43:31;;;;;;;4.30;3.90;;;;;;;23.19;48.17;97214.41;5015551;28;20148;-27
2022/10/11 10:45:59;;;;;;;4.60;4.20;;;;;;;23.19;47.99;97220.69;5015657;28;20480;-27
2022/10/11 10:48:51;;;;;;;4.78;3.80;;;;;;;23.23;48.10;97221.25;5015497;28;20029;-27
2022/10/11 10:51:25;;;;;;;4.20;3.80;;;;;;;23.24;47.99;97213.72;5015366;28;20061;-27
2022/10/11 10:54:17;;;;;;;4.63;4.07;;;;;;;23.24;47.94;97205.41;5015420;28;20026;-26
2022/10/11 10:56:56;;;;;;;4.47;3.70;;;;;;;23.20;48.05;97197.31;5014260;28;20034;-26
2022/10/11 10:59:44;;;;;;;4.07;3.67;;;;;;;23.21;47.88;97198.06;5013943;28;20375;-28
2022/10/11 11:02:28;;;;;;;4.28;3.88;;;;;;;23.18;48.24;97202.59;5015467;28;20364;-28
2022/10/11 11:05:12;;;;;;;4.20;3.67;;;;;;;23.23;48.15;97193.56;5013980;28;20060;-27
2022/10/11 11:07:45;;;;;;;4.72;3.63;;;;;;;23.26;48.14;97198.09;5015241;28;20069;-27
2022/10/11 11:10:31;;;;;;;4.05;3.40;;;;;;;23.32;47.68;97197.41;5015203;28;20037;-27
2022/10/11 11:13:38;;;;;;;4.53;4.13;;;;;;;23.32;47.85;97200.91;5015049;28;20065;-27
2022/10/11 11:16:20;;;;;;;4.50;4.10;;;;;;;23.33;47.99;97196.91;5015284;28;20021;-28
2022/10/11 11:18:45;;;;;;;6.47;4.18;;;;;;;23.25;48.17;97187.53;5014942;28;20130;-27
2022/10/11 11:21:34;;;;;;;4.65;4.20;;;;;;;23.35;48.21;97186.09;5015047;28;20114;-26
2022/10/11 11:24:24;;;;;;;4.70;3.83;;;;;;;23.27;48.39;97185.78;5013787;28;20462;-26
2022/10/11 11:26:58;;;;;;;4.43;3.85;;;;;;;23.34;48.13;97184.59;5014801;28;20048;-26
2022/10/11 11:29:42;;;;;;;4.15;3.75;;;;;;;23.31;47.99;97182.81;5014749;28;20033;-28
2022/10/11 11:32:17;;;;;;;6.18;3.90;;;;;;;23.33;48.02;97185.06;5014691;28;20389;-27
2022/10/11 11:34:49;;;;;;;8.48;4.03;;;;;;;23.28;48.29;97189.31;5014951;28;20061;-27
2022/10/11 11:37:17;;;;;;;3.97;3.63;;;;;;;23.34;48.19;97187.34;5014691;28;20029;-26
2022/10/11 11:40:25;;;;;;;4.30;3.90;;;;;;;23.37;48.33;97180.81;5014356;28;20050;-27
2022/10/11 11:42:55;;;;;;;5.40;4.32;;;;;;;23.32;48.38;97167.72;5014704;28;20048;-28
2022/10/11 11:45:46;;;;;;;4.60;4.20;;;;;;;23.38;48.16;97182.31;5014557;28;20108;-26
2022/10/11 11:48:20;;;;;;;4.53;3.95;;;;;;;23.42;48.29;97179.34;5012804;28;20034;-26
2022/10/11 11:51:12;;;;;;;4.28;3.88;;;;;;;23.40;48.27;97174.28;5014589;28;20029;-27